Time;durP1;ratioP1;P1;durP2;ratioP2;P2;SDS_P1;SDS_P2;PMS_P1;PMS_P2;Temp;Humidity;BMP_temperature;BMP_pressure;BME280_temperature;BME280_humidity;BME280_pressure;Samples;Min_cycle;Max_cycle;Signal;HPM_P1;HPM_P2
2024/03/07 00:00:45;;;;;;;15.35;5.68;;;;;;;-145.63;100.00;61273.97;5012988;28;20037;-64
2024/03/07 00:03:11;;;;;;;15.65;5.93;;;;;;;-145.63;100.00;61273.97;5013246;28;20121;-64
2024/03/07 00:05:37;;;;;;;16.10;5.40;;;;;;;-145.63;100.00;61273.97;5013073;28;20138;-64
2024/03/07 00:08:03;;;;;;;23.00;6.53;;;;;;;-145.63;100.00;61273.97;5006686;28;20440;-65
2024/03/07 00:10:29;;;;;;;18.33;6.13;;;;;;;-145.63;100.00;61273.97;5007795;28;20034;-63
2024/03/07 00:12:54;;;;;;;14.63;6.00;;;;;;;-145.63;100.00;61273.97;5012265;28;20369;-64
2024/03/07 00:15:21;;;;;;;14.65;5.32;;;;;;;-145.63;100.00;61273.97;4997778;28;20027;-65
2024/03/07 00:17:46;;;;;;;10.23;5.35;;;;;;;-145.63;100.00;61273.97;5001120;28;20034;-64
2024/03/07 00:20:15;;;;;;;16.42;5.53;;;;;;;-145.63;100.00;61273.97;5000152;28;20030;-64
2024/03/07 00:22:41;;;;;;;17.60;5.53;;;;;;;-145.63;100.00;61273.97;5012981;28;20084;-64
2024/03/07 00:25:09;;;;;;;15.07;5.30;;;;;;;-145.63;100.00;61273.97;5013275;28;20033;-64
2024/03/07 00:27:36;;;;;;;15.27;5.63;;;;;;;-145.63;100.00;61273.97;4994819;28;20046;-64
2024/03/07 00:30:08;;;;;;;17.15;7.28;;;;;;;-145.63;100.00;61273.97;5007446;28;20030;-64
2024/03/07 00:32:39;;;;;;;12.82;5.38;;;;;;;-145.63;100.00;61273.97;5006539;28;20415;-63
2024/03/07 00:35:06;;;;;;;19.30;6.55;;;;;;;-145.63;100.00;61273.97;5007114;28;20049;-64
2024/03/07 00:37:32;;;;;;;12.55;5.97;;;;;;;-145.63;100.00;61273.97;4995136;28;20077;-65
2024/03/07 00:39:58;;;;;;;16.95;5.60;;;;;;;-145.63;100.00;61273.97;5012838;28;20065;-65
2024/03/07 00:42:24;;;;;;;15.27;6.50;;;;;;;-145.63;100.00;61273.97;5012755;28;20038;-65
2024/03/07 00:44:49;;;;;;;13.10;5.50;;;;;;;-145.63;100.00;61273.97;5001089;28;20038;-64
2024/03/07 00:47:17;;;;;;;15.27;5.95;;;;;;;-145.63;100.00;61273.97;5008724;28;20392;-64
2024/03/07 00:49:47;;;;;;;15.60;6.00;;;;;;;-145.63;100.00;61273.97;5008784;28;20456;-65
2024/03/07 00:52:14;;;;;;;15.82;5.72;;;;;;;-145.63;100.00;61273.97;5009192;28;20066;-65
2024/03/07 00:54:39;;;;;;;17.35;5.70;;;;;;;-145.63;100.00;61273.97;5017157;28;20447;-65
2024/03/07 00:57:05;;;;;;;12.55;6.25;;;;;;;-145.63;100.00;61273.97;5013155;28;20058;-65
2024/03/07 00:59:30;;;;;;;19.23;5.53;;;;;;;-145.63;100.00;61273.97;5003142;28;20482;-66
2024/03/07 01:01:56;;;;;;;16.08;5.40;;;;;;;-145.63;100.00;61273.97;5000654;28;20018;-66
2024/03/07 01:04:22;;;;;;;12.43;5.65;;;;;;;-145.63;100.00;61273.97;5012376;28;20036;-66
2024/03/07 01:06:50;;;;;;;13.02;5.47;;;;;;;-145.63;100.00;61273.97;5003507;28;20397;-65
2024/03/07 01:09:18;;;;;;;11.90;5.88;;;;;;;-145.63;100.00;61273.97;5008236;28;20033;-64
2024/03/07 01:11:47;;;;;;;17.48;5.75;;;;;;;-145.63;100.00;61273.97;5010479;28;20034;-65
2024/03/07 01:14:13;;;;;;;15.90;5.93;;;;;;;-145.63;100.00;61273.97;5005617;28;20084;-64
2024/03/07 01:16:39;;;;;;;13.43;6.03;;;;;;;-145.63;100.00;61273.97;4995547;28;20480;-65
2024/03/07 01:19:08;;;;;;;13.35;5.63;;;;;;;-145.63;100.00;61273.97;5011979;28;20026;-66
2024/03/07 01:21:34;;;;;;;14.40;6.50;;;;;;;-145.63;100.00;61273.97;5014531;28;20033;-64
2024/03/07 01:24:01;;;;;;;14.68;6.15;;;;;;;-145.63;100.00;61273.97;5026406;28;20044;-64
2024/03/07 01:26:30;;;;;;;14.60;5.68;;;;;;;-145.63;100.00;61273.97;5036275;28;20566;-64
2024/03/07 01:28:59;;;;;;;14.48;5.75;;;;;;;-145.63;100.00;61273.97;5034650;28;20029;-64
2024/03/07 01:31:25;;;;;;;15.30;5.85;;;;;;;-145.63;100.00;61273.97;5015784;28;20038;-63
2024/03/07 01:33:52;;;;;;;12.82;5.75;;;;;;;-145.63;100.00;61273.97;5016833;28;20054;-64
2024/03/07 01:36:19;;;;;;;15.45;6.15;;;;;;;-145.63;100.00;61273.97;5009365;28;20041;-63
2024/03/07 01:38:44;;;;;;;13.88;6.22;;;;;;;-145.63;100.00;61273.97;5015462;28;20032;-64
2024/03/07 01:41:10;;;;;;;14.35;6.18;;;;;;;-145.63;100.00;61273.97;5014850;28;20462;-64
2024/03/07 01:43:36;;;;;;;13.60;5.32;;;;;;;-145.63;100.00;61273.97;5015777;28;20093;-65
2024/03/07 01:46:03;;;;;;;16.88;6.53;;;;;;;-145.63;100.00;61273.97;4996621;28;20030;-66
2024/03/07 01:48:31;;;;;;;15.52;5.85;;;;;;;-145.63;100.00;61273.97;5012868;28;20030;-65
2024/03/07 01:50:58;;;;;;;13.07;6.10;;;;;;;-145.63;100.00;61273.97;5014948;28;20456;-65
2024/03/07 01:53:27;;;;;;;14.82;6.43;;;;;;;-145.63;100.00;61273.97;5007180;28;20026;-65
2024/03/07 01:55:53;;;;;;;17.20;7.30;;;;;;;-145.63;100.00;61273.97;4999779;28;20030;-64
2024/03/07 01:58:21;;;;;;;20.98;6.50;;;;;;;-145.63;100.00;61273.97;5015503;28;20037;-65
2024/03/07 02:00:47;;;;;;;16.40;7.15;;;;;;;-145.63;100.00;61273.97;5013805;28;20065;-65
2024/03/07 02:03:13;;;;;;;13.25;6.28;;;;;;;-145.63;100.00;61273.97;5015001;28;20032;-64
2024/03/07 02:05:43;;;;;;;16.23;7.28;;;;;;;-145.63;100.00;61273.97;5009180;28;20468;-65
2024/03/07 02:08:09;;;;;;;17.67;6.80;;;;;;;-145.63;100.00;61273.97;5015731;28;20034;-65
2024/03/07 02:10:35;;;;;;;13.43;6.32;;;;;;;-145.63;100.00;61273.97;5013930;28;20088;-65
2024/03/07 02:13:00;;;;;;;18.30;6.75;;;;;;;-145.63;100.00;61273.97;5014210;28;20073;-66
2024/03/07 02:15:28;;;;;;;14.13;6.70;;;;;;;-145.63;100.00;61273.97;4998467;28;20023;-65
2024/03/07 02:17:54;;;;;;;15.85;7.07;;;;;;;-145.63;100.00;61273.97;5007632;28;20101;-65
2024/03/07 02:20:20;;;;;;;14.15;6.65;;;;;;;-145.63;100.00;61273.97;5009462;28;20053;-65
2024/03/07 02:22:46;;;;;;;16.38;7.65;;;;;;;-145.63;100.00;61273.97;5012097;28;20546;-64
2024/03/07 02:25:12;;;;;;;12.05;6.25;;;;;;;-145.63;100.00;61273.97;4995475;28;20066;-64
2024/03/07 02:27:38;;;;;;;15.13;7.25;;;;;;;-145.63;100.00;61273.97;5013436;28;20049;-65
2024/03/07 02:30:05;;;;;;;23.17;6.78;;;;;;;-145.63;100.00;61273.97;5004463;28;20026;-65
2024/03/07 02:32:32;;;;;;;18.25;6.65;;;;;;;-145.63;100.00;61273.97;5006514;28;20611;-65
2024/03/07 02:34:58;;;;;;;15.40;7.18;;;;;;;-145.63;100.00;61273.97;4999435;28;20045;-65
2024/03/07 02:37:24;;;;;;;16.40;6.82;;;;;;;-145.63;100.00;61273.97;5014290;28;20073;-65
2024/03/07 02:39:49;;;;;;;14.55;6.78;;;;;;;-145.63;100.00;61273.97;4995174;28;20088;-64
2024/03/07 02:42:15;;;;;;;15.52;7.25;;;;;;;-145.63;100.00;61273.97;5014482;28;20065;-65
2024/03/07 02:44:40;;;;;;;15.20;7.20;;;;;;;-145.63;100.00;61273.97;5014869;28;20533;-65
2024/03/07 02:47:06;;;;;;;11.73;6.45;;;;;;;-145.63;100.00;61273.97;5009660;28;20049;-66
2024/03/07 02:49:32;;;;;;;14.63;7.45;;;;;;;-145.63;100.00;61273.97;4995408;28;20034;-65
2024/03/07 02:51:58;;;;;;;22.55;8.00;;;;;;;-145.63;100.00;61273.97;5014292;28;20033;-65
2024/03/07 02:54:24;;;;;;;16.70;7.13;;;;;;;-145.63;100.00;61273.97;5014424;28;20103;-65
2024/03/07 02:56:49;;;;;;;18.70;7.80;;;;;;;-145.63;100.00;61273.97;5004470;28;20468;-65
2024/03/07 02:59:16;;;;;;;24.30;8.77;;;;;;;-145.63;100.00;61273.97;5013082;28;20064;-67
2024/03/07 03:01:42;;;;;;;16.35;7.00;;;;;;;-145.63;100.00;61273.97;5006788;28;20034;-66
2024/03/07 03:04:08;;;;;;;17.75;7.30;;;;;;;-145.63;100.00;61273.97;5014206;28;20045;-65
2024/03/07 03:06:33;;;;;;;17.63;7.93;;;;;;;-145.63;100.00;61273.97;5002324;28;20026;-64
2024/03/07 03:09:00;;;;;;;18.60;7.25;;;;;;;-145.63;100.00;61273.97;5004956;28;20028;-64
2024/03/07 03:11:27;;;;;;;20.50;7.78;;;;;;;-145.63;100.00;61273.97;5008422;28;20118;-65
2024/03/07 03:13:53;;;;;;;18.15;7.57;;;;;;;-145.63;100.00;61273.97;5000337;28;20122;-64
2024/03/07 03:16:18;;;;;;;21.42;8.13;;;;;;;-145.63;100.00;61273.97;5012659;28;20077;-65
2024/03/07 03:18:44;;;;;;;17.73;7.88;;;;;;;-145.63;100.00;61273.97;4999754;28;20029;-65
2024/03/07 03:21:10;;;;;;;22.20;8.55;;;;;;;-145.63;100.00;61273.97;5002999;28;20112;-66
2024/03/07 03:23:35;;;;;;;21.63;8.25;;;;;;;-145.63;100.00;61273.97;5004565;28;20104;-66
2024/03/07 03:26:13;;;;;;;16.35;7.32;;;;;;;-145.63;100.00;61273.97;5001312;28;20152;-65
2024/03/07 03:28:41;;;;;;;20.83;7.90;;;;;;;-145.63;100.00;61273.97;5008670;28;20037;-65
2024/03/07 03:31:08;;;;;;;21.52;7.57;;;;;;;-145.63;100.00;61273.97;5012039;28;20028;-65
2024/03/07 03:33:35;;;;;;;18.35;7.70;;;;;;;-145.63;100.00;61273.97;5022003;28;20080;-65
2024/03/07 03:36:21;;;;;;;18.05;7.65;;;;;;;-145.63;100.00;61273.97;5014627;28;20034;-66
2024/03/07 03:38:47;;;;;;;18.85;8.02;;;;;;;-145.63;100.00;61273.97;5015844;28;20156;-66
2024/03/07 03:41:17;;;;;;;18.27;7.53;;;;;;;-145.63;100.00;61273.97;5024259;28;20092;-66
2024/03/07 03:43:44;;;;;;;18.75;7.65;;;;;;;-145.63;100.00;61273.97;5013483;28;20181;-66
2024/03/07 03:46:11;;;;;;;19.35;8.30;;;;;;;-145.63;100.00;61273.97;5000379;28;20034;-66
2024/03/07 03:48:52;;;;;;;17.13;7.95;;;;;;;-145.63;100.00;61273.97;5017548;28;20036;-65
2024/03/07 03:51:18;;;;;;;16.58;7.55;;;;;;;-145.63;100.00;61273.97;5017752;28;20021;-65
2024/03/07 03:53:44;;;;;;;15.32;7.38;;;;;;;-145.63;100.00;61273.97;5011633;28;20034;-65
2024/03/07 03:56:13;;;;;;;17.55;7.47;;;;;;;-145.63;100.00;61273.97;5002373;28;20074;-66
2024/03/07 03:58:41;;;;;;;21.08;8.02;;;;;;;-145.63;100.00;61273.97;5014228;28;20026;-67
2024/03/07 04:01:12;;;;;;;21.63;8.07;;;;;;;-145.63;100.00;61273.97;5011051;28;20384;-63
2024/03/07 04:03:38;;;;;;;15.63;8.18;;;;;;;-145.63;100.00;61273.97;5011850;28;20070;-64
2024/03/07 04:06:04;;;;;;;16.55;8.93;;;;;;;-145.63;100.00;61273.97;5014776;28;20058;-63
2024/03/07 04:08:30;;;;;;;19.00;7.63;;;;;;;-145.63;100.00;61273.97;5014188;28;20038;-64
2024/03/07 04:10:56;;;;;;;18.63;8.73;;;;;;;-145.63;100.00;61273.97;5011028;28;20108;-64
2024/03/07 04:13:22;;;;;;;22.80;8.23;;;;;;;-145.63;100.00;61273.97;5008418;28;20077;-64
2024/03/07 04:15:48;;;;;;;21.73;8.05;;;;;;;-145.63;100.00;61273.97;5003797;28;20471;-63
2024/03/07 04:18:13;;;;;;;19.25;8.57;;;;;;;-145.63;100.00;61273.97;5008342;28;20065;-64
2024/03/07 04:20:39;;;;;;;22.40;8.20;;;;;;;-145.63;100.00;61273.97;4994673;28;20034;-66
2024/03/07 04:23:05;;;;;;;21.10;8.60;;;;;;;-145.63;100.00;61273.97;5013447;28;20033;-64
2024/03/07 04:25:32;;;;;;;21.58;8.75;;;;;;;-145.63;100.00;61273.97;4997011;28;20081;-66
2024/03/07 04:27:58;;;;;;;17.17;8.43;;;;;;;-145.63;100.00;61273.97;5004433;28;20113;-64
2024/03/07 04:30:24;;;;;;;18.85;7.70;;;;;;;-145.63;100.00;61273.97;5006354;28;20145;-65
2024/03/07 04:32:49;;;;;;;13.50;7.03;;;;;;;-145.63;100.00;61273.97;5013661;28;20100;-64
2024/03/07 04:35:15;;;;;;;16.02;7.53;;;;;;;-145.63;100.00;61273.97;5013013;28;20038;-64
2024/03/07 04:37:41;;;;;;;17.50;6.97;;;;;;;-145.63;100.00;61273.97;5012206;28;20033;-64
2024/03/07 04:40:15;;;;;;;20.85;7.90;;;;;;;-145.63;100.00;61273.97;5012556;28;20483;-65
2024/03/07 04:42:43;;;;;;;17.42;6.90;;;;;;;-145.63;100.00;61273.97;5004513;28;20365;-65
2024/03/07 04:45:13;;;;;;;21.77;8.07;;;;;;;-145.63;100.00;61273.97;5004968;28;20030;-64
2024/03/07 04:47:42;;;;;;;20.40;8.25;;;;;;;-145.63;100.00;61273.97;5002134;28;20046;-64
2024/03/07 04:50:12;;;;;;;14.63;8.18;;;;;;;-145.63;100.00;61273.97;5004115;28;20045;-65
2024/03/07 04:52:39;;;;;;;18.27;7.78;;;;;;;-145.63;100.00;61273.97;5012925;28;20030;-64
2024/03/07 04:55:10;;;;;;;18.65;8.00;;;;;;;-145.63;100.00;61273.97;5005041;28;20030;-65
2024/03/07 04:57:41;;;;;;;20.25;8.15;;;;;;;-145.63;100.00;61273.97;5008755;28;20061;-64
2024/03/07 05:00:13;;;;;;;18.88;8.95;;;;;;;-145.63;100.00;61273.97;4997514;28;20041;-64
2024/03/07 05:02:40;;;;;;;29.27;9.30;;;;;;;-145.63;100.00;61273.97;4996885;28;20057;-64
2024/03/07 05:05:06;;;;;;;19.05;8.25;;;;;;;-145.63;100.00;61273.97;5016042;28;20034;-66
2024/03/07 05:07:31;;;;;;;18.02;8.52;;;;;;;-145.63;100.00;61273.97;5016247;28;20041;-65
2024/03/07 05:09:57;;;;;;;16.73;8.27;;;;;;;-145.63;100.00;61273.97;5015939;28;20037;-65
2024/03/07 05:12:22;;;;;;;18.02;8.30;;;;;;;-145.63;100.00;61273.97;5016022;28;20041;-64
2024/03/07 05:14:51;;;;;;;21.90;9.57;;;;;;;-145.63;100.00;61273.97;5015080;28;20059;-65
2024/03/07 05:17:20;;;;;;;22.25;9.13;;;;;;;-145.63;100.00;61273.97;5015318;28;20468;-66
2024/03/07 05:19:55;;;;;;;26.02;9.73;;;;;;;-145.63;100.00;61273.97;5011812;28;20030;-65
2024/03/07 05:22:24;;;;;;;20.98;8.43;;;;;;;-145.63;100.00;61273.97;5016856;28;20022;-65
2024/03/07 05:24:53;;;;;;;24.05;9.55;;;;;;;-145.63;100.00;61273.97;5007175;28;20034;-65
2024/03/07 05:27:35;;;;;;;23.38;9.02;;;;;;;-145.63;100.00;61273.97;5035594;28;20080;-65
2024/03/07 05:30:04;;;;;;;21.45;8.50;;;;;;;-145.63;100.00;61273.97;5018180;28;20036;-66
2024/03/07 05:32:31;;;;;;;26.90;9.10;;;;;;;-145.63;100.00;61273.97;5016894;28;20034;-66
2024/03/07 05:34:56;;;;;;;25.58;8.70;;;;;;;-145.63;100.00;61273.97;5016172;28;20045;-64
2024/03/07 05:37:28;;;;;;;21.73;7.55;;;;;;;-145.63;100.00;61273.97;5015843;28;20038;-65
2024/03/07 05:39:54;;;;;;;22.40;8.15;;;;;;;-145.63;100.00;61273.97;5005569;28;20081;-64
2024/03/07 05:42:19;;;;;;;20.42;8.27;;;;;;;-145.63;100.00;61273.97;5001744;28;20033;-65
2024/03/07 05:44:45;;;;;;;19.15;8.15;;;;;;;-145.63;100.00;61273.97;5011400;28;20026;-66
2024/03/07 05:47:15;;;;;;;32.17;9.30;;;;;;;-145.63;100.00;61273.97;5015657;28;20022;-65
2024/03/07 05:49:41;;;;;;;28.17;9.82;;;;;;;-145.63;100.00;61273.97;5015414;28;20031;-66
2024/03/07 05:52:07;;;;;;;30.50;10.20;;;;;;;-145.63;100.00;61273.97;5026014;28;20050;-66
2024/03/07 05:54:33;;;;;;;22.17;9.25;;;;;;;-145.63;100.00;61273.97;5028125;28;20116;-64
2024/03/07 05:56:59;;;;;;;25.38;8.35;;;;;;;-145.63;100.00;61273.97;5012035;28;20352;-63
2024/03/07 05:59:26;;;;;;;23.77;9.05;;;;;;;-145.63;100.00;61273.97;4996131;28;20058;-64
2024/03/07 06:01:52;;;;;;;23.17;8.50;;;;;;;-145.63;100.00;61273.97;5013798;28;20514;-66
2024/03/07 06:04:18;;;;;;;18.83;7.53;;;;;;;-145.63;100.00;61273.97;5015145;28;20030;-65
2024/03/07 06:06:44;;;;;;;20.52;7.90;;;;;;;-145.63;100.00;61273.97;5014982;28;20030;-66
2024/03/07 06:09:13;;;;;;;16.30;6.85;;;;;;;-145.63;100.00;61273.97;5015084;28;20096;-66
2024/03/07 06:11:43;;;;;;;19.50;6.60;;;;;;;-145.63;100.00;61273.97;5013622;28;20487;-68
2024/03/07 06:14:08;;;;;;;21.05;7.53;;;;;;;-145.63;100.00;61273.97;4994464;28;20030;-65
2024/03/07 06:16:38;;;;;;;18.02;7.35;;;;;;;-145.63;100.00;61273.97;5010252;28;20092;-65
2024/03/07 06:19:08;;;;;;;16.02;6.60;;;;;;;-145.63;100.00;61273.97;5014863;28;20125;-65
2024/03/07 06:21:35;;;;;;;17.08;5.82;;;;;;;-145.63;100.00;61273.97;5007516;28;20041;-65
2024/03/07 06:24:02;;;;;;;17.35;5.63;;;;;;;-145.63;100.00;61273.97;4997729;28;20030;-65
2024/03/07 06:26:59;;;;;;;12.98;4.22;;;;;;;-145.63;100.00;61273.97;5015123;28;20042;-64
2024/03/07 06:29:17;;;;;;;10.52;5.20;;;;;;;-145.63;100.00;61273.97;4994538;28;20042;-65
2024/03/07 06:31:45;;;;;;;10.02;4.72;;;;;;;-145.63;100.00;61273.97;5010067;28;20034;-65
2024/03/07 06:34:12;;;;;;;19.73;5.15;;;;;;;-145.63;100.00;61273.97;5014502;28;20052;-64
2024/03/07 06:36:40;;;;;;;9.10;3.95;;;;;;;-145.63;100.00;61273.97;5014664;28;20080;-66
2024/03/07 06:39:06;;;;;;;8.45;4.35;;;;;;;-145.63;100.00;61273.97;5012642;28;20026;-65
2024/03/07 06:41:35;;;;;;;8.93;3.90;;;;;;;-145.63;100.00;61273.97;4995342;28;20038;-65
2024/03/07 06:44:01;;;;;;;8.00;3.38;;;;;;;-145.63;100.00;61273.97;5013550;28;20104;-65
2024/03/07 06:46:28;;;;;;;10.07;4.00;;;;;;;-145.63;100.00;61273.97;5000286;28;20083;-66
2024/03/07 06:48:53;;;;;;;5.40;3.05;;;;;;;-145.63;100.00;61273.97;5004544;28;20424;-65
2024/03/07 06:51:19;;;;;;;8.40;3.60;;;;;;;-145.63;100.00;61273.97;5013980;28;20041;-66
2024/03/07 06:53:46;;;;;;;6.28;3.08;;;;;;;-145.63;100.00;61273.97;5014462;28;20468;-67
2024/03/07 06:56:13;;;;;;;8.13;3.58;;;;;;;-145.63;100.00;61273.97;4994688;28;20489;-66
2024/03/07 06:58:39;;;;;;;13.07;3.40;;;;;;;-145.63;100.00;61273.97;5014141;28;20181;-66
2024/03/07 07:01:09;;;;;;;6.68;3.35;;;;;;;-145.63;100.00;61273.97;5004181;28;20030;-67
2024/03/07 07:03:50;;;;;;;6.80;3.05;;;;;;;-145.63;100.00;61273.97;5001501;28;20168;-66
2024/03/07 07:06:21;;;;;;;8.10;3.45;;;;;;;-145.63;100.00;61273.97;5014547;28;20048;-68
2024/03/07 07:08:47;;;;;;;10.07;3.30;;;;;;;-145.63;100.00;61273.97;5014820;28;20390;-67
2024/03/07 07:11:13;;;;;;;12.77;3.63;;;;;;;-145.63;100.00;61273.97;5014390;28;20049;-66
2024/03/07 07:13:38;;;;;;;9.90;3.72;;;;;;;-145.63;100.00;61273.97;5014125;28;20045;-66
2024/03/07 07:16:35;;;;;;;7.90;3.50;;;;;;;-145.63;100.00;61273.97;5003258;28;20042;-67
2024/03/07 07:19:01;;;;;;;10.95;3.17;;;;;;;-145.63;100.00;61273.97;4994545;28;20042;-68
2024/03/07 07:21:27;;;;;;;7.15;3.15;;;;;;;-145.63;100.00;61273.97;4999463;28;20058;-67
2024/03/07 07:23:53;;;;;;;11.68;2.90;;;;;;;-145.63;100.00;61273.97;5013392;28;20080;-66
2024/03/07 07:26:32;;;;;;;11.90;3.47;;;;;;;-145.63;100.00;61273.97;5013798;28;20073;-67
2024/03/07 07:29:06;;;;;;;11.65;3.28;;;;;;;-145.63;100.00;61273.97;4994970;28;20498;-69
2024/03/07 07:31:32;;;;;;;6.20;3.13;;;;;;;-145.63;100.00;61273.97;5011414;28;20067;-66
2024/03/07 07:33:58;;;;;;;10.20;3.13;;;;;;;-145.63;100.00;61273.97;5013937;28;20135;-67
2024/03/07 07:36:23;;;;;;;6.50;3.58;;;;;;;-145.63;100.00;61273.97;5013504;28;20108;-68
2024/03/07 07:38:49;;;;;;;9.00;2.83;;;;;;;-145.63;100.00;61273.97;5013962;28;20038;-67
2024/03/07 07:41:15;;;;;;;8.50;3.97;;;;;;;-145.63;100.00;61273.97;4994119;28;20037;-65
2024/03/07 07:43:41;;;;;;;8.77;3.80;;;;;;;-145.63;100.00;61273.97;5009102;28;20060;-67
2024/03/07 07:46:07;;;;;;;9.48;3.50;;;;;;;-145.63;100.00;61273.97;5013687;28;20030;-66
2024/03/07 07:48:33;;;;;;;9.48;4.30;;;;;;;-145.63;100.00;61273.97;5007537;28;20088;-66
2024/03/07 07:50:59;;;;;;;11.88;4.45;;;;;;;-145.63;100.00;61273.97;5011032;28;20518;-65
2024/03/07 07:53:25;;;;;;;12.88;3.50;;;;;;;-145.63;100.00;61273.97;5013622;28;20030;-66
2024/03/07 07:55:50;;;;;;;10.15;4.40;;;;;;;-145.63;100.00;61273.97;5013754;28;20038;-65
2024/03/07 07:58:19;;;;;;;12.45;4.22;;;;;;;-145.63;100.00;61273.97;5013298;28;20112;-66
2024/03/07 08:01:03;;;;;;;12.70;4.07;;;;;;;-145.63;100.00;61273.97;5006371;28;20109;-66
2024/03/07 08:03:29;;;;;;;10.07;4.30;;;;;;;-145.63;100.00;61273.97;5007845;28;20046;-66
2024/03/07 08:05:55;;;;;;;7.88;3.50;;;;;;;-145.63;100.00;61273.97;5007749;28;20474;-66
2024/03/07 08:08:21;;;;;;;14.18;4.68;;;;;;;-145.63;100.00;61273.97;5009324;28;20115;-65
2024/03/07 08:10:47;;;;;;;10.23;3.83;;;;;;;-145.63;100.00;61273.97;5011002;28;20065;-68
2024/03/07 08:13:13;;;;;;;9.85;3.75;;;;;;;-145.63;100.00;61273.97;5012797;28;20111;-67
2024/03/07 08:15:54;;;;;;;8.50;4.47;;;;;;;-145.63;100.00;61273.97;5010723;28;20042;-66
2024/03/07 08:18:31;;;;;;;18.40;4.60;;;;;;;-145.63;100.00;61273.97;5013221;28;20034;-65
2024/03/07 08:21:10;;;;;;;8.70;4.60;;;;;;;-145.63;100.00;61273.97;5012638;28;20045;-65
2024/03/07 08:23:41;;;;;;;13.88;4.40;;;;;;;-145.63;100.00;61273.97;4993820;28;20117;-67
2024/03/07 08:26:07;;;;;;;10.82;4.30;;;;;;;-145.63;100.00;61273.97;5011677;28;20125;-66
2024/03/07 08:28:42;;;;;;;7.65;4.05;;;;;;;-145.63;100.00;61273.97;5013180;28;20045;-66
2024/03/07 08:31:09;;;;;;;11.40;4.82;;;;;;;-145.63;100.00;61273.97;5023667;28;20530;-67
2024/03/07 08:33:35;;;;;;;6.80;4.03;;;;;;;-145.63;100.00;61273.97;5008868;28;20561;-66
2024/03/07 08:36:01;;;;;;;10.18;4.57;;;;;;;-145.63;100.00;61273.97;5013758;28;20045;-67
2024/03/07 08:38:26;;;;;;;8.25;4.25;;;;;;;-145.63;100.00;61273.97;5017325;28;20460;-65
2024/03/07 08:40:52;;;;;;;9.48;4.63;;;;;;;-145.63;100.00;61273.97;5000976;28;20040;-66
2024/03/07 08:43:18;;;;;;;9.80;4.18;;;;;;;-145.63;100.00;61273.97;5009207;28;20033;-67
2024/03/07 08:45:44;;;;;;;7.47;4.35;;;;;;;-145.63;100.00;61273.97;5012141;28;20044;-65
2024/03/07 08:48:10;;;;;;;9.90;4.47;;;;;;;-145.63;100.00;61273.97;4999740;28;20045;-65
2024/03/07 08:50:37;;;;;;;13.70;4.68;;;;;;;-145.63;100.00;61273.97;5015656;28;20037;-67
2024/03/07 08:53:24;;;;;;;7.80;4.43;;;;;;;-145.63;100.00;61273.97;5014668;28;20037;-64
2024/03/07 08:55:53;;;;;;;13.00;4.93;;;;;;;-145.63;100.00;61273.97;5000943;28;20078;-66
2024/03/07 08:58:43;;;;;;;8.80;4.57;;;;;;;-145.63;100.00;61273.97;5011873;28;20084;-66
2024/03/07 09:01:34;;;;;;;;;;;;;;;-145.63;100.00;61273.97;5014976;28;20041;-66
2024/03/07 09:06:46;;;;;;;10.15;4.75;;;;;;;-145.63;100.00;61273.97;5003976;28;20025;-66
2024/03/07 09:09:13;;;;;;;12.05;4.28;;;;;;;-145.63;100.00;61273.97;5014466;28;20042;-67
2024/03/07 09:11:42;;;;;;;8.00;3.92;;;;;;;-145.63;100.00;61273.97;4997081;28;20030;-65
2024/03/07 09:14:09;;;;;;;8.98;4.53;;;;;;;-145.63;100.00;61273.97;5012120;28;20531;-65
2024/03/07 09:16:35;;;;;;;5.63;4.22;;;;;;;-145.63;100.00;61273.97;5002784;28;20026;-65
2024/03/07 09:19:01;;;;;;;9.52;3.70;;;;;;;-145.63;100.00;61273.97;5005843;28;20022;-66
2024/03/07 09:21:26;;;;;;;7.75;3.53;;;;;;;-145.63;100.00;61273.97;5016099;28;20025;-65
2024/03/07 09:23:52;;;;;;;6.07;3.55;;;;;;;-145.63;100.00;61273.97;5016210;28;20117;-65
2024/03/07 09:26:30;;;;;;;6.78;3.60;;;;;;;-145.63;100.00;61273.97;5015849;28;20026;-67
2024/03/07 09:29:18;;;;;;;9.90;3.88;;;;;;;-145.63;100.00;61273.97;4999383;28;20466;-65
2024/03/07 09:31:48;;;;;;;7.70;3.50;;;;;;;-145.63;100.00;61273.97;5025885;28;20546;-66
2024/03/07 09:34:14;;;;;;;9.25;3.45;;;;;;;-145.63;100.00;61273.97;5015984;28;20065;-65
2024/03/07 09:37:23;;;;;;;7.22;3.75;;;;;;;-145.63;100.00;61273.97;5015606;28;20479;-65
2024/03/07 09:40:11;;;;;;;7.68;3.95;;;;;;;-145.63;100.00;61273.97;5006094;28;20061;-65
2024/03/07 09:42:44;;;;;;;7.85;3.47;;;;;;;-145.63;100.00;61273.97;5001821;28;20022;-66
2024/03/07 09:45:24;;;;;;;7.72;3.58;;;;;;;-145.63;100.00;61273.97;4998061;28;20072;-65
2024/03/07 09:47:53;;;;;;;7.70;3.45;;;;;;;-145.63;100.00;61273.97;5014851;28;20067;-64
2024/03/07 09:50:36;;;;;;;12.20;4.55;;;;;;;-145.63;100.00;61273.97;5004986;28;20038;-65
2024/03/07 09:53:09;;;;;;;7.97;4.07;;;;;;;-145.63;100.00;61273.97;5015665;28;20026;-65
2024/03/07 09:55:35;;;;;;;8.63;3.72;;;;;;;-145.63;100.00;61273.97;5013212;28;20042;-65
2024/03/07 09:58:03;;;;;;;7.20;3.25;;;;;;;-145.63;100.00;61273.97;5006834;28;20085;-70
2024/03/07 10:00:36;;;;;;;9.20;3.63;;;;;;;-145.63;100.00;61273.97;5000370;28;20077;-66
2024/03/07 10:03:38;;;;;;;11.32;3.22;;;;;;;-145.63;100.00;61273.97;5014921;28;20088;-64
2024/03/07 10:06:13;;;;;;;7.32;3.10;;;;;;;-145.63;100.00;61273.97;5006344;28;20540;-65
2024/03/07 10:08:40;;;;;;;6.18;3.53;;;;;;;-145.63;100.00;61273.97;5011204;28;20026;-65
2024/03/07 10:11:08;;;;;;;6.43;3.25;;;;;;;-145.63;100.00;61273.97;5013005;28;20026;-65
2024/03/07 10:13:35;;;;;;;7.45;3.80;;;;;;;-145.63;100.00;61273.97;5015135;28;20045;-65
2024/03/07 10:16:01;;;;;;;9.35;4.50;;;;;;;-145.63;100.00;61273.97;5015386;28;20038;-64
2024/03/07 10:18:41;;;;;;;8.68;4.20;;;;;;;-145.63;100.00;61273.97;5009805;28;20034;-65
2024/03/07 10:21:28;;;;;;;5.47;2.95;;;;;;;-145.63;100.00;61273.97;5003193;28;20021;-65
2024/03/07 10:24:07;;;;;;;6.80;3.58;;;;;;;-145.63;100.00;61273.97;5010256;28;20456;-64
2024/03/07 10:26:37;;;;;;;3.67;2.60;;;;;;;-145.63;100.00;61273.97;5005612;28;20164;-65
2024/03/07 10:29:49;;;;;;;6.03;2.90;;;;;;;-145.63;100.00;61273.97;5013542;28;20065;-63
2024/03/07 10:32:25;;;;;;;4.70;3.17;;;;;;;-145.63;100.00;61273.97;5013819;28;20037;-64
2024/03/07 10:34:52;;;;;;;5.05;3.05;;;;;;;-145.63;100.00;61273.97;5007563;28;20034;-63
2024/03/07 10:37:20;;;;;;;6.20;3.17;;;;;;;-145.63;100.00;61273.97;5007567;28;20487;-65
2024/03/07 10:39:51;;;;;;;5.05;3.00;;;;;;;-145.63;100.00;61273.97;5005320;28;20360;-64
2024/03/07 10:42:19;;;;;;;3.75;3.03;;;;;;;-145.63;100.00;61273.97;5013935;28;20029;-64
2024/03/07 10:44:49;;;;;;;6.20;3.00;;;;;;;-145.63;100.00;61273.97;5005696;28;20037;-64
2024/03/07 10:47:19;;;;;;;7.35;3.22;;;;;;;-145.63;100.00;61273.97;5014516;28;20041;-63
2024/03/07 10:50:19;;;;;;;8.70;3.28;;;;;;;-145.63;100.00;61273.97;5000402;28;20088;-63
2024/03/07 10:53:16;;;;;;;9.05;3.15;;;;;;;-145.63;100.00;61273.97;4986173;28;20038;-64
2024/03/07 10:56:28;;;;;;;6.85;3.50;;;;;;;-145.63;100.00;61273.97;5011281;28;20172;-63
2024/03/07 10:59:17;;;;;;;6.22;3.13;;;;;;;-145.63;100.00;61273.97;5029112;28;20033;-64
2024/03/07 11:02:04;;;;;;;5.82;3.58;;;;;;;-145.63;100.00;61273.97;5014312;28;20424;-63
2024/03/07 11:04:50;;;;;;;7.22;3.47;;;;;;;-145.63;100.00;61273.97;5003747;28;20036;-65
2024/03/07 11:07:16;;;;;;;7.95;3.25;;;;;;;-145.63;100.00;61273.97;5007046;28;20098;-65
2024/03/07 11:09:45;;;;;;;9.05;3.50;;;;;;;-145.63;100.00;61273.97;5006772;28;20037;-65
2024/03/07 11:12:11;;;;;;;10.23;3.25;;;;;;;-145.63;100.00;61273.97;4989184;28;20038;-64
2024/03/07 11:14:56;;;;;;;8.57;3.08;;;;;;;-145.63;100.00;61273.97;5012549;28;20056;-65
2024/03/07 11:17:24;;;;;;;6.20;3.30;;;;;;;-145.63;100.00;61273.97;5010498;28;20034;-65